Česky Dansk Deutsch English Español Suomi Français Magyar Italiano Nederlands norsk Polski Português svenska Türkçe

 

Het Weer

Sharm El Sheikhintl (Egypt)

13:00, 21 augustus 2016 (GMT)

NWNNE
WE
SWSSE
Home            
Sharm El Sheikhintl Hurguada El Tor Eilat Taba Aqaba Airport Tabuk Ovda Ma'An Wejh Luxor Asyut El Arish Beer-Sheva Cairo Airport Port Said Queen Alia Airport Jerusalem Airport Ben-Gurion International Airport Tel Aviv / Sde-Dov Airport Amman Airport Guriat Asswan

Om een weerknop op uw website of weblog te plaatsen, copieer onderstaande code en plak die in uw pagina. In het eerste vakje staat HTML-code, in het tweede vakje UBB-code.


Add to Google

Details

Wind speed:3 bf, 10 kn, 5.1 m/s, 11.5 miles/h, 18.5 km/h
Wind direction:SSE, 150°
Celková viditeľnosť:Väčšia ako 10000 m, 10 km, 32800 ft, 6.2 miles
Clouds:CAVOC
Teplota:35°C, 95°F
Gefühlte Temperatur:36°C, 96°F
Rosným:17°C, 63°F
Atmosférický tlak:1005 hPa, 753.8 mmHg, 29.68 inHg, 0.992 atm
Relatívna vlhkosť vzduchu:34.5 %
METAR:HESH 211300Z 15010KT CAVOK 35/17 Q1005 NOSIG

Snelkoppelingen

Actuele weersinformatie van de hele wereld. Voeg locaties toe met het plus (+) symbool. Deze snelkoppelingen kunnen worden toegevoegd aan Google.

Lid van de Technetium groep

website free tracking
StatCounter NetStat W3C Validator

17-12-2017 04:47:28
astro.technetium.be money.technetium.be phote.technetium.be tafeltennistafel.technetium.be www.ligfiets.net